フォークランド諸島 の空港の天気 - METARとTAF

マウント・プレザント空軍基地 ( EGYP / MPN ) - フォークランド諸島 フォークランド諸島
飛行場実況気象(Metar)
観測時間11/17 14:50 FKST (11/17 17:50 UTC)
風向・風速南 4m/s
視程10km以上
天気現象
少しの雲 雲底高度 1070m
全天の8割程度の雲 雲底高度 1830m
気温9℃
湿度43%
気圧1004hPa
METAREGYP 171750Z 18008KT 9999 FEW035 BKN060 09/M03 Q1004 BLU NOSIG
過去の天気等 Google飛行場航空写真 Wunderground天気予報

過去48時間のMETAR

飛行場予報(TAF)
発表時間: 11/17 13:52 FKST (11/17 16:52 UTC)
予報対象時間: 17日15時 FKST ~ 18日9時 FKST
風向・風速南西 6m/s
視程10km以上
全天の4割程度の雲 雲底高度 1370m
18日2時 FKST ~ 18日4時 FKST に徐々に
風向・風速北北西 8m/s 瞬間風速 13m/s
18日4時 FKST ~ 18日9時 FKST に 確率 40% で一時的に
風向・風速北北西 13m/s 瞬間風速 18m/s
18日4時 FKST ~ 18日9時 FKST に 確率 30% で一時的に
風向・風速不定 4m/s
全天の4割程度の雲 雲底高度 210m
TAF EGYP 171652Z 1718/1812 23011KT 9999 SCT045
BECMG 1805/1807 34015G25KT 520003
PROB40 TEMPO 1807/1812 34025G35KT 530003
PROB30 TEMPO 1807/1812 VRB07KT SCT007 560003